Latest Weather Observations for Frankston

IDV60801

Issued at 1:02 pm EST Sunday 30 August 2015 (issued every 30 minutes, with the page automatically refreshed every 10 minutes)

About weather observations | Map of weather stations | Latest weather observations for VIC | Other Formats
Station Details ID: 086371 Name: FRANKSTON AWS Lat: -38.15 Lon: 145.12 Height: 6.0 m
Data from the previous 72 hours. | See also: Recent months at Frankston
Date/Time
EST
Temp
°C
App
Temp
°C
Dew
Point
Rel
Hum
%
Delta-T
°C
Wind Press
QNH
hPa
Press
MSL
hPa
Rain
since 9 am
mm
Dir
 
Spd
km/h
Gust
km/h
Spd
kts
Gust
kts
30/01:00pm 10.2 4.3 5.8 74 2.0 WSW 26 30 14 16 - - -
30/12:30pm 10.1 4.2 5.7 74 2.0 WSW 26 30 14 16 - - -
30/12:00pm 10.3 5.6 5.9 74 2.0 WSW 20 24 11 13 - - -
30/11:30am 10.4 5.6 5.8 73 2.1 WSW 20 24 11 13 - - -
30/11:00am 10.5 5.8 5.9 73 2.1 WSW 20 22 11 12 - - -
30/10:30am 10.3 5.7 5.7 73 2.1 WSW 19 22 10 12 - - -
30/10:00am 10.2 5.6 5.6 73 2.1 WSW 19 20 10 11 - - -
30/09:30am 10.2 5.9 5.2 71 2.3 WSW 17 20 9 11 - - -
30/09:00am 10.1 5.4 5.1 71 2.3 WSW 19 22 10 12 - - -
30/08:30am 10.0 5.9 4.6 69 2.4 SW 15 20 8 11 - - -
30/08:00am 9.8 6.1 4.4 69 2.4 SW 13 17 7 9 - - -
30/07:30am 9.4 6.0 4.0 69 2.4 SW 11 13 6 7 - - -
30/07:00am 9.4 5.2 4.0 69 2.4 SW 15 19 8 10 - - -
30/06:30am 9.6 6.2 4.2 69 2.4 SW 11 17 6 9 - - -
30/06:00am 9.6 6.7 4.4 70 2.3 SW 9 13 5 7 - - -
30/05:30am 9.6 7.1 4.6 71 2.2 SW 7 9 4 5 - - -
30/05:00am 9.9 6.6 4.3 68 2.5 SW 11 17 6 9 - - -
30/04:30am 9.9 6.7 5.1 72 2.2 SW 11 15 6 8 - - -
30/04:00am 9.5 7.8 5.9 78 1.6 SSW 4 6 2 3 - - -
30/03:30am 9.5 7.8 6.0 79 1.6 SSW 4 7 2 4 - - -
30/03:00am 9.6 7.6 6.1 79 1.6 SSW 6 9 3 5 - - -
30/02:30am 9.6 7.6 6.3 80 1.5 SSW 6 7 3 4 - - -
30/02:00am 9.6 7.7 6.5 81 1.4 SW 6 7 3 4 - - -
30/01:30am 9.6 7.5 6.5 81 1.4 SW 7 11 4 6 - - -
30/01:00am 9.6 7.7 6.7 82 1.4 SSW 6 11 3 6 - - -
30/12:30am 9.6 7.2 6.9 83 1.3 SW 9 13 5 7 - - -
30/12:00am 9.6 6.8 6.9 83 1.3 SW 11 13 6 7 - - -
 
Date/Time
EST
Temp
°C
App
Temp
°C
Dew
Point
Rel
Hum
%
Delta-T
°C
Wind Press
QNH
hPa
Press
MSL
hPa
Rain
since 9 am
mm
Dir
 
Spd
km/h
Gust
km/h
Spd
kts
Gust
kts
29/11:30pm 9.5 7.6 6.8 83 1.3 SW 6 9 3 5 - - -
29/11:00pm 9.6 7.5 6.7 82 1.4 SW 7 9 4 5 - - -
29/10:30pm 9.5 6.5 6.0 79 1.6 SSW 11 19 6 10 - - -
29/10:00pm 9.8 7.6 6.3 79 1.6 SSW 7 13 4 7 - - -
29/09:30pm 9.9 6.6 6.3 78 1.7 SW 13 19 7 10 - - -
29/09:00pm 10.2 6.9 6.5 78 1.7 SSW 13 20 7 11 - - -
29/08:30pm 10.0 7.7 7.4 84 1.2 SW 9 11 5 6 - - -
29/08:00pm 9.6 7.9 7.4 86 1.0 SW 6 9 3 5 - - -
29/07:30pm 9.4 7.0 7.0 85 1.1 SW 9 13 5 7 - - -
29/07:00pm 9.6 6.4 6.9 83 1.3 SW 13 22 7 12 - - -
29/06:30pm 9.8 6.7 7.2 84 1.2 SW 13 20 7 11 - - -
29/06:00pm 9.7 7.4 7.6 87 1.0 SW 9 15 5 8 - - -
29/05:30pm 10.6 6.7 7.1 79 1.7 SW 17 33 9 18 - - -
29/05:00pm 10.4 7.3 7.3 81 1.5 SSW 13 20 7 11 - - -
29/04:30pm 10.6 7.2 7.5 81 1.5 SSW 15 24 8 13 - - -
29/04:00pm 10.9 4.9 7.2 78 1.8 WSW 28 33 15 18 - - -
29/03:30pm 10.6 5.0 7.3 80 1.6 WSW 26 33 14 18 - - -
29/03:00pm 10.5 5.3 7.4 81 1.5 WSW 24 33 13 18 - - -
29/02:30pm 10.8 4.7 6.7 76 1.9 WSW 28 35 15 19 - - -
29/02:00pm 10.1 4.2 7.3 83 1.3 WSW 28 35 15 19 - - -
29/01:30pm 9.8 3.8 6.9 82 1.4 WSW 28 35 15 19 - - -
29/01:00pm 10.1 5.1 6.6 79 1.6 WSW 22 30 12 16 - - -
29/12:30pm 9.8 5.3 6.0 77 1.7 SW 19 32 10 17 - - -
29/12:00pm 10.6 3.4 4.9 68 2.6 WSW 32 39 17 21 - - -
29/11:30am 10.3 3.2 5.5 72 2.2 WSW 32 37 17 20 - - -
29/11:00am 10.1 2.9 5.1 71 2.3 WSW 32 41 17 22 - - -
29/10:31am 9.7 3.2 4.9 72 2.2 SW 28 48 15 26 - - -
29/10:30am 9.8 3.0 5.0 72 2.2 SW 30 48 16 26 - - -
29/10:00am 9.9 3.6 3.6 65 2.7 SW 26 37 14 20 - - -
29/09:30am 10.0 4.1 3.7 65 2.8 WSW 24 35 13 19 - - -
29/09:00am 9.3 4.7 3.5 67 2.5 SW 17 26 9 14 - - -
29/08:30am 8.7 4.9 3.7 71 2.2 SW 13 20 7 11 - - -
29/08:00am 8.5 3.3 2.5 66 2.5 SW 19 28 10 15 - - -
29/07:30am 7.9 3.8 2.2 67 2.4 SW 13 19 7 10 - - -
29/07:00am 7.4 3.9 1.5 66 2.4 SSW 9 15 5 8 - - -
29/06:30am 7.5 4.1 1.6 66 2.4 SSW 9 11 5 6 - - -
29/06:00am 7.0 3.9 1.3 67 2.3 SSW 7 9 4 5 - - -
29/05:30am 7.3 3.8 1.4 66 2.4 SSW 9 11 5 6 - - -
29/05:00am 6.2 3.5 0.5 67 2.2 S 4 6 2 3 - - -
29/04:30am 7.1 4.1 1.0 65 2.4 SSW 6 6 3 3 - - -
29/04:00am 7.0 4.0 1.1 66 2.4 SW 6 7 3 4 - - -
29/03:30am 6.6 3.7 1.5 70 2.0 SSW 6 9 3 5 - - -
29/03:00am 7.2 4.6 3.1 75 1.7 SSW 6 9 3 5 - - -
29/02:30am 7.1 4.7 4.4 83 1.2 SSW 6 7 3 4 - - -
29/02:00am 6.9 4.9 4.6 85 1.0 SW 4 6 2 3 - - -
29/01:30am 7.2 5.6 4.3 82 1.3 SSE 2 4 1 2 - - -
29/01:00am 7.1 3.6 3.7 79 1.4 S 11 22 6 12 - - -
29/12:30am 7.2 4.9 2.9 74 1.8 SSE 4 6 2 3 - - -
29/12:00am 7.8 5.2 3.1 72 2.0 SSW 6 11 3 6 - - -
 
Date/Time
EST
Temp
°C
App
Temp
°C
Dew
Point
Rel
Hum
%
Delta-T
°C
Wind Press
QNH
hPa
Press
MSL
hPa
Rain
since 9 am
mm
Dir
 
Spd
km/h
Gust
km/h
Spd
kts
Gust
kts
28/11:30pm 7.5 4.6 1.4 65 2.5 SSW 6 9 3 5 - - -
28/11:00pm 7.9 4.7 0.9 61 2.8 S 7 9 4 5 - - -
28/10:30pm 8.3 4.8 1.2 61 2.9 SSW 9 13 5 7 - - -
28/10:00pm 8.5 4.6 1.4 61 2.9 SW 11 15 6 8 - - -
28/09:30pm 8.7 5.3 1.8 62 2.9 SW 9 13 5 7 - - -
28/09:00pm 8.0 5.0 1.8 65 2.5 SW 7 11 4 6 - - -
28/08:30pm 7.9 5.2 2.4 68 2.3 SSW 6 9 3 5 - - -
28/08:00pm 8.3 5.2 3.4 71 2.1 SW 9 11 5 6 - - -
28/07:30pm 8.5 5.5 3.9 73 2.0 SSW 9 11 5 6 - - -
28/07:00pm 9.1 7.1 4.3 72 2.1 SW 4 6 2 3 - - -
28/06:30pm 9.2 6.7 4.0 70 2.3 SSW 6 7 3 4 - - -
28/06:00pm 9.8 6.4 3.8 66 2.6 SW 11 17 6 9 - - -
28/05:30pm 10.3 4.9 4.5 67 2.6 WSW 22 24 12 13 - - -
28/05:00pm 10.4 5.4 4.5 67 2.6 WSW 20 24 11 13 - - -
28/04:30pm 10.5 4.3 4.4 66 2.7 WSW 26 32 14 17 - - -
28/04:00pm 11.4 6.9 4.4 62 3.2 SW 17 24 9 13 - - -
28/03:30pm 11.8 7.4 5.0 63 3.1 SW 17 26 9 14 - - -
28/03:00pm 12.0 8.1 5.4 64 3.1 SW 15 22 8 12 - - -
28/02:30pm 12.6 9.6 6.2 65 3.0 SSW 11 20 6 11 - - -
28/02:00pm 12.4 7.8 5.8 64 3.1 SW 19 28 10 15 - - -
28/01:30pm 11.7 8.2 7.2 74 2.2 SW 15 26 8 14 - - -
28/01:00pm 11.4 7.4 6.7 73 2.2 SW 17 26 9 14 - - -
28/12:30pm 11.4 7.4 6.7 73 2.2 WSW 17 22 9 12 - - -
28/12:00pm 11.0 7.2 7.5 79 1.7 WSW 17 22 9 12 - - -
28/11:30am 12.1 7.9 5.9 66 2.9 SW 17 26 9 14 - - -
28/11:00am 12.2 9.3 6.3 67 2.8 SSW 11 17 6 9 - - -
28/10:30am 11.7 9.1 6.2 69 2.6 SSW 9 17 5 9 - - -
28/10:00am 11.2 9.1 6.7 74 2.1 SW 7 13 4 7 - - -
28/09:30am 10.5 8.6 7.7 83 1.3 WSW 7 11 4 6 - - -
28/09:00am 10.0 8.1 7.4 84 1.2 WSW 7 11 4 6 - - -
28/08:30am 9.8 7.8 7.2 84 1.2 WSW 7 9 4 5 - - -
28/08:00am 9.6 7.1 6.7 82 1.4 SW 9 13 5 7 - - -
28/07:30am 9.3 5.6 6.4 82 1.3 SW 15 22 8 12 - - -
28/07:00am 9.4 6.9 6.5 82 1.3 SW 9 11 5 6 - - -
28/06:30am 9.4 7.2 6.3 81 1.4 SW 7 9 4 5 - - -
28/06:00am 9.4 6.8 6.3 81 1.4 SSW 9 13 5 7 - - -
28/05:30am 9.5 7.3 6.4 81 1.4 SSW 7 9 4 5 - - -
28/05:00am 9.8 7.4 6.9 82 1.4 SSW 9 13 5 7 - - -
28/04:30am 9.8 7.4 7.1 83 1.3 SW 9 13 5 7 - - -
28/04:00am 9.6 7.7 6.9 83 1.3 SW 6 11 3 6 - - -
28/03:30am 9.1 8.2 6.0 81 1.4 CALM 0 0 0 0 - - -
28/03:00am 8.8 7.8 5.4 79 1.5 CALM 0 0 0 0 - - -
28/02:30am 8.7 7.6 5.1 78 1.6 CALM 0 0 0 0 - - -
28/02:00am 8.9 7.1 5.5 79 1.5 SSW 4 7 2 4 - - -
28/01:30am 8.9 7.6 5.8 81 1.4 SW 2 4 1 2 - - -
28/01:00am 8.9 6.9 6.2 83 1.2 SSW 6 7 3 4 - - -
28/12:30am 9.0 6.8 6.3 83 1.2 SW 7 9 4 5 - - -
28/12:00am 9.2 6.7 6.5 83 1.3 SW 9 11 5 6 - - -
 
Date/Time
EST
Temp
°C
App
Temp
°C
Dew
Point
Rel
Hum
%
Delta-T
°C
Wind Press
QNH
hPa
Press
MSL
hPa
Rain
since 9 am
mm
Dir
 
Spd
km/h
Gust
km/h
Spd
kts
Gust
kts
27/11:30pm 9.7 6.9 7.0 83 1.3 SW 11 15 6 8 - - -
27/11:00pm 9.8 7.5 7.6 86 1.0 SSW 9 15 5 8 - - -
27/10:30pm 10.1 8.5 8.2 88 0.9 SW 6 7 3 4 - - -
27/10:00pm 10.4 9.0 8.7 89 0.8 SW 6 9 3 5 - - -
27/09:30pm 10.5 9.2 9.1 91 0.7 SSW 6 11 3 6 - - -
27/09:00pm 10.9 9.5 9.7 92 0.6 SSW 7 17 4 9 - - -
27/08:30pm 11.1 9.0 9.9 92 0.6 SSW 11 19 6 10 - - -
27/08:00pm 11.3 10.1 10.2 93 0.6 SSW 7 15 4 8 - - -
27/07:30pm 11.4 9.8 10.3 93 0.6 S 9 20 5 11 - - -
27/07:00pm 11.4 9.9 10.5 94 0.5 SSW 9 19 5 10 - - -
27/06:30pm 11.6 10.1 10.7 94 0.5 SSW 9 17 5 9 - - -
27/06:00pm 11.6 10.5 10.7 94 0.5 SSW 7 13 4 7 - - -
27/05:30pm 11.6 10.5 10.7 94 0.5 SSW 7 11 4 6 - - -
27/05:00pm 11.3 10.3 10.4 94 0.5 SSW 6 9 3 5 - - -
27/04:30pm 11.5 9.2 10.6 94 0.5 SSW 13 22 7 12 - - -
27/04:00pm 11.9 9.8 11.1 95 0.4 SSW 13 19 7 10 - - -
27/03:30pm 11.6 8.1 11.0 96 0.3 WSW 20 28 11 15 - - -
27/03:00pm 11.4 7.5 10.9 97 0.3 WSW 22 26 12 14 - - -
27/02:30pm 11.2 8.3 10.9 98 0.2 WSW 17 20 9 11 - - -
27/02:00pm 11.1 7.8 10.8 98 0.2 W 19 20 10 11 - - -
27/01:30pm 10.9 8.3 10.7 99 0.1 W 15 17 8 9 - - -

Other Formats:

Comma delimited format used in spreadsheet applications
http://www.bom.gov.au/fwo/IDV60801/IDV60801.94871.axf

JavaScript Object Notation format (JSON) in row-major order
http://www.bom.gov.au/fwo/IDV60801/IDV60801.94871.json